createdAt,value
2023-03-26T00:04:44.756Z,7.16
2023-03-26T00:24:44.829Z,7.35
2023-03-26T00:44:45.153Z,7.16
2023-03-26T01:04:45.142Z,7.15
2023-03-26T01:24:45.127Z,7.12
2023-03-26T01:44:45.331Z,7.46
2023-03-26T02:04:45.386Z,7.27
2023-03-26T02:24:45.067Z,7.1
2023-03-26T02:44:44.995Z,7.29
2023-03-26T03:04:45.132Z,7.27
2023-03-26T03:24:45.083Z,7.21
2023-03-26T03:44:45.067Z,7.21
2023-03-26T04:04:45.454Z,7.22
2023-03-26T04:24:46.030Z,7.25
2023-03-26T04:44:45.509Z,7.22
2023-03-26T05:04:45.829Z,6.85
2023-03-26T05:24:45.570Z,7.05
2023-03-26T05:44:45.647Z,6.97
2023-03-26T06:04:45.781Z,7
2023-03-26T06:24:45.714Z,7.19
2023-03-26T06:44:45.482Z,7.27
2023-03-26T07:04:45.565Z,7.47
2023-03-26T07:24:45.615Z,7.5
2023-03-26T07:44:45.714Z,7.77
2023-03-26T08:04:45.852Z,7.81
2023-03-26T08:24:45.667Z,7.99
2023-03-26T08:44:45.806Z,8.48
2023-03-26T09:04:45.837Z,8.54
2023-03-26T09:24:45.844Z,9.01
2023-03-26T09:44:45.856Z,8.81
2023-03-26T10:04:45.899Z,8.52
2023-03-26T10:24:45.997Z,8.24
2023-03-26T10:44:45.950Z,7.46
2023-03-26T11:04:46.006Z,7.29
2023-03-26T11:24:45.969Z,7.24
2023-03-26T11:44:46.155Z,7.41
2023-03-26T12:04:46.276Z,7.11
2023-03-26T12:24:46.226Z,7.92
2023-03-26T12:44:58.689Z,7.99
2023-03-26T13:04:55.241Z,7.65
2023-03-26T13:24:46.347Z,8.33
2023-03-26T13:44:46.355Z,9.34
2023-03-26T14:04:46.380Z,9.55
2023-03-26T14:24:46.394Z,9.53
2023-03-26T14:44:47.446Z,9.67
2023-03-26T15:04:46.545Z,9.15
2023-03-26T15:24:46.517Z,9
2023-03-26T15:44:52.981Z,8.9
2023-03-26T16:04:50.225Z,8.58
2023-03-26T16:24:46.708Z,8.3
2023-03-26T16:44:46.668Z,8.33
2023-03-26T17:04:46.697Z,8.07
2023-03-26T17:24:46.717Z,7.75
2023-03-26T17:44:46.807Z,7.52
2023-03-26T18:04:46.834Z,7.22
2023-03-26T18:24:46.914Z,6.96
2023-03-26T18:44:46.900Z,6.16
2023-03-26T19:04:47.276Z,5.38
2023-03-26T19:24:47.084Z,5.25
2023-03-26T19:44:47.081Z,5.08
2023-03-26T20:04:47.089Z,5.05
2023-03-26T20:24:47.182Z,5.14
2023-03-26T20:44:47.197Z,5.2
2023-03-26T21:04:47.274Z,5.28
2023-03-26T21:24:47.198Z,5.47
2023-03-26T21:44:47.370Z,5.56
2023-03-26T22:04:47.396Z,5.67
2023-03-26T22:24:47.418Z,5.81
2023-03-26T22:44:47.413Z,5.77
2023-03-26T23:04:47.628Z,5.56
2023-03-26T23:24:47.542Z,5.52
2023-03-26T23:44:47.571Z,5.48
